Terminal Aerodrome Forecast
Issued by NWS

Home | Current Version | Previous Version | Text Only | Print | Product List | Glossary On
Versions: 1 2 3 4 5 6 7 8 9 10 11 12 13 14 15 16 17 18 19 20 21 22 23 24 25 26 27 28 29 30 31 32 33 34 35 36 37
000
FTUS45 KSLC 250524
TAFSGU
TAF
KSGU 250524Z 2506/2606 12010KT P6SM VCSH SCT050 BKN070
     FM251100 25012KT 3SM -SHRASN SCT010 BKN020
     FM251500 27015KT P6SM VCSH SCT020 BKN050
      AMD LTD TO CLD VIS AND WIND=

USA.gov is the U.S. government's official web portal to all federal, state and local government web resources and services.